Warrens, WI (54666)

11:43 PM CDT on September 30, 2014 (GMT -0500)
Sparta-Fort McCoy | Change Station
CLOSE
Current Station
Airport
Location: Sparta,
Elevation: 837 ft
Nearby Weather Stations

Elev 837 ft 43.96 °N, 90.74 °W | Updated 28 minutes ago

Mostly Cloudy
Mostly Cloudy
45 °F
Feels Like 42 °F
N
6
Wind Variable Wind from East

Today
High -- | Low -- °F
--% Chance of Precip.
Yesterday
High -- | Low -- °F
Precip. -- in
6:58 AM 6:44 PM
Waxing Crescent, 43% visible
Pressure 30.01 in
Visibility 7.0 miles
Clouds Scattered Clouds 1200 ft
Windchill 42 °F
Dew Point 41 °F
Humidity 86%
Rainfall 0.00 in
Snow Depth Not available.
UV 0 out of 12
Pollen 1.60 out of 12
Air Quality Not available.
Flu Activity Not available.
METAR KCMY 010415Z AUTO 10005KT 7SM SCT012 07/05 A3001 RMK AO2 T00730051

More Conditions Fewer Conditions

Pressure 30.01 in
Visibility 7.0 miles
Clouds Scattered Clouds 1200 ft
Windchill 42 °F
Dew Point 41 °F
Humidity 86%
Rainfall 0.00 in
Snow Depth Not available.
UV 0 out of 12
Pollen 1.60 out of 12
Air Quality Not available.
Flu Activity Not available.
METAR KCMY 010415Z AUTO 10005KT 7SM SCT012 07/05 A3001 RMK AO2 T00730051

More Conditions Fewer Conditions

10-Day Weather Forecast

Almanac

Astronomy

Sep. 30, 2014 Rise Set
Actual Time 6:58 AM CDT 6:44 PM CDT
Civil Twilight 6:29 AM CDT 7:13 PM CDT
Nautical Twilight 5:56 AM CDT 7:46 PM CDT
Astronomical Twilight 5:22 AM CDT 8:20 PM CDT
Moon 1:16 PM CDT (9/30) 11:05 PM CDT (9/30)
Length of Visible Light 12h 43m
Length of Day
11h 46m
Tomorrow will be 3m 1s shorter.
Waxing Crescent, 43% of the Moon is Illuminated
Oct 1
Waxing Crescent
Oct 1
First Quarter
Oct 8
Full
Oct 15
Last Quarter
Oct 23
New

Yesterday's Extremes

State Highs State Lows

Community

WunderPhotos

Upload Photos

1,757,847 photos uploaded!

Nearby

Snow Depth

Station Depth Elevation
No new snow has been reported.

Earthquake Activity

City Distance Mag. Time & Date
No recent earthquake activity has been reported nearby.
Minimum magnitude displayed is 2.5.

Coastal Water Temperatures

Place Temperature
No Stations Reporting

Nearby Weather Stations